Portada
METAR-TAF:

METAR-TAF

Aeroports :

Sakon Nakhon, Tailàndia

latitud: 17-11-42N, longitud: 104-07-08E, altitud: 161 m

Observació

L'informe es va fer fa 53 minuts, a les 10:00 UTC
Vent 7 kt del Est/Sud-Est, variant entre Est i Sud/Sud-Est
Temperatura 28°C
Humitat 58%
Pressió 1013 hPa
Visibilitat 10 km o més
Escasses núvols a una alçada de 4000 ft

METAR: VTUI 201000Z 11007KT 090V150 9999 FEW040 28/19 Q1013 NOSIG

Hora: 17:53 (10:53 UTC)

Pronòstic

L'informe es va fer fa 5 hores i 53 minuts, a les 05:00 UTC
Pronòstic vàlid del 20 a les 06 UTC al 21 a les 06 UTC
Vent 8 kt del Est/Nord-Est
Visibilitat 10 km o més
Escasses núvols a una alçada de 2500 ft

TAF: VTUI 200500Z 2006/2106 06008KT 9999 FEW025

Observacions i pronòstics meteorològics de més de 4000 aeroports (METAR i TAF).

Les estacions disponibles són els punts grocs i vermells al mapa.

Posi el ratolí al punt desitjat per veure el nom de l'estació.

Feu clic per veure les observacions i els pronòstics meteorològics.

Per canviar el mapa: feu clic els botons verds amb una creu de color negre per apropar; al botó verd amb un guió per allunyar la imatge; o en les fletxes verdes per a mapes adjacents.


METAR-TAF: